sensor_id;sensor_type;location;lat;lon;timestamp;P1;durP1;ratioP1;P2;durP2;ratioP2
28627;SDS011;15815;46.760;19.604;2022-07-17T00:00:22;4.70;;;1.75;;
28627;SDS011;15815;46.760;19.604;2022-07-17T00:02:48;3.05;;;1.70;;
28627;SDS011;15815;46.760;19.604;2022-07-17T00:05:14;4.68;;;1.77;;
28627;SDS011;15815;46.760;19.604;2022-07-17T00:07:39;2.88;;;1.80;;
28627;SDS011;15815;46.760;19.604;2022-07-17T00:10:05;3.33;;;1.83;;
28627;SDS011;15815;46.760;19.604;2022-07-17T00:12:31;4.45;;;1.90;;
28627;SDS011;15815;46.760;19.604;2022-07-17T00:14:57;4.80;;;2.30;;
28627;SDS011;15815;46.760;19.604;2022-07-17T00:17:22;3.15;;;1.85;;
28627;SDS011;15815;46.760;19.604;2022-07-17T00:19:48;2.95;;;1.52;;
28627;SDS011;15815;46.760;19.604;2022-07-17T00:22:13;4.22;;;1.55;;
28627;SDS011;15815;46.760;19.604;2022-07-17T00:24:39;2.40;;;1.45;;
28627;SDS011;15815;46.760;19.604;2022-07-17T00:27:04;2.85;;;1.80;;
28627;SDS011;15815;46.760;19.604;2022-07-17T00:29:30;5.32;;;1.42;;
28627;SDS011;15815;46.760;19.604;2022-07-17T00:31:55;2.00;;;1.50;;
28627;SDS011;15815;46.760;19.604;2022-07-17T00:34:21;2.95;;;1.60;;
28627;SDS011;15815;46.760;19.604;2022-07-17T00:36:46;3.97;;;1.77;;
28627;SDS011;15815;46.760;19.604;2022-07-17T00:39:11;2.00;;;1.63;;
28627;SDS011;15815;46.760;19.604;2022-07-17T00:41:37;1.60;;;1.23;;
28627;SDS011;15815;46.760;19.604;2022-07-17T00:44:08;7.10;;;1.50;;
28627;SDS011;15815;46.760;19.604;2022-07-17T00:49:00;1.87;;;1.60;;
28627;SDS011;15815;46.760;19.604;2022-07-17T00:51:26;4.32;;;1.50;;
28627;SDS011;15815;46.760;19.604;2022-07-17T00:53:52;3.72;;;1.92;;
28627;SDS011;15815;46.760;19.604;2022-07-17T00:56:18;2.10;;;1.40;;
28627;SDS011;15815;46.760;19.604;2022-07-17T00:58:46;4.05;;;1.58;;
28627;SDS011;15815;46.760;19.604;2022-07-17T01:01:14;3.65;;;1.48;;
28627;SDS011;15815;46.760;19.604;2022-07-17T01:03:39;6.35;;;1.45;;
28627;SDS011;15815;46.760;19.604;2022-07-17T01:06:05;4.63;;;1.65;;
28627;SDS011;15815;46.760;19.604;2022-07-17T01:08:31;6.28;;;1.63;;
28627;SDS011;15815;46.760;19.604;2022-07-17T01:10:57;4.07;;;1.80;;
28627;SDS011;15815;46.760;19.604;2022-07-17T01:13:23;3.05;;;1.50;;
28627;SDS011;15815;46.760;19.604;2022-07-17T01:15:49;2.53;;;1.42;;
28627;SDS011;15815;46.760;19.604;2022-07-17T01:18:14;3.97;;;1.40;;
28627;SDS011;15815;46.760;19.604;2022-07-17T01:20:41;3.40;;;1.50;;
28627;SDS011;15815;46.760;19.604;2022-07-17T01:23:09;4.13;;;1.55;;
28627;SDS011;15815;46.760;19.604;2022-07-17T01:25:35;9.60;;;1.48;;
28627;SDS011;15815;46.760;19.604;2022-07-17T01:28:02;3.35;;;1.40;;
28627;SDS011;15815;46.760;19.604;2022-07-17T01:30:28;5.53;;;1.60;;
28627;SDS011;15815;46.760;19.604;2022-07-17T01:32:54;3.42;;;1.63;;
28627;SDS011;15815;46.760;19.604;2022-07-17T01:35:20;8.93;;;1.55;;
28627;SDS011;15815;46.760;19.604;2022-07-17T01:37:46;6.15;;;1.50;;
28627;SDS011;15815;46.760;19.604;2022-07-17T01:40:12;4.90;;;1.88;;
28627;SDS011;15815;46.760;19.604;2022-07-17T01:42:39;2.58;;;1.48;;
28627;SDS011;15815;46.760;19.604;2022-07-17T01:45:07;3.45;;;1.77;;
28627;SDS011;15815;46.760;19.604;2022-07-17T01:47:33;4.82;;;1.50;;
28627;SDS011;15815;46.760;19.604;2022-07-17T01:49:59;3.47;;;1.45;;
28627;SDS011;15815;46.760;19.604;2022-07-17T01:52:25;4.53;;;1.50;;
28627;SDS011;15815;46.760;19.604;2022-07-17T01:54:51;3.40;;;1.48;;
28627;SDS011;15815;46.760;19.604;2022-07-17T01:57:17;3.67;;;1.90;;
28627;SDS011;15815;46.760;19.604;2022-07-17T01:59:43;5.43;;;2.03;;
28627;SDS011;15815;46.760;19.604;2022-07-17T02:02:09;5.68;;;1.70;;
28627;SDS011;15815;46.760;19.604;2022-07-17T02:04:36;13.32;;;1.67;;
28627;SDS011;15815;46.760;19.604;2022-07-17T02:07:03;6.05;;;2.03;;
28627;SDS011;15815;46.760;19.604;2022-07-17T02:09:29;7.43;;;1.80;;
28627;SDS011;15815;46.760;19.604;2022-07-17T02:11:55;6.63;;;1.88;;
28627;SDS011;15815;46.760;19.604;2022-07-17T02:14:20;10.23;;;2.00;;
28627;SDS011;15815;46.760;19.604;2022-07-17T02:16:45;8.27;;;1.92;;
28627;SDS011;15815;46.760;19.604;2022-07-17T02:19:11;14.40;;;2.40;;
28627;SDS011;15815;46.760;19.604;2022-07-17T02:21:37;4.60;;;1.70;;
28627;SDS011;15815;46.760;19.604;2022-07-17T02:24:02;3.03;;;1.35;;
28627;SDS011;15815;46.760;19.604;2022-07-17T02:26:28;8.27;;;1.50;;
28627;SDS011;15815;46.760;19.604;2022-07-17T02:28:53;6.88;;;2.15;;
28627;SDS011;15815;46.760;19.604;2022-07-17T02:31:20;4.68;;;1.63;;
28627;SDS011;15815;46.760;19.604;2022-07-17T02:33:45;4.13;;;1.70;;
28627;SDS011;15815;46.760;19.604;2022-07-17T02:36:10;8.05;;;2.63;;
28627;SDS011;15815;46.760;19.604;2022-07-17T02:38:36;3.72;;;1.60;;
28627;SDS011;15815;46.760;19.604;2022-07-17T02:41:01;6.53;;;1.83;;
28627;SDS011;15815;46.760;19.604;2022-07-17T02:43:26;6.18;;;1.73;;
28627;SDS011;15815;46.760;19.604;2022-07-17T02:45:52;2.70;;;1.52;;
28627;SDS011;15815;46.760;19.604;2022-07-17T02:48:17;3.42;;;1.65;;
28627;SDS011;15815;46.760;19.604;2022-07-17T02:50:42;3.90;;;1.55;;
28627;SDS011;15815;46.760;19.604;2022-07-17T02:53:08;5.43;;;1.40;;
28627;SDS011;15815;46.760;19.604;2022-07-17T02:55:33;2.67;;;1.77;;
28627;SDS011;15815;46.760;19.604;2022-07-17T02:57:59;5.18;;;1.50;;
28627;SDS011;15815;46.760;19.604;2022-07-17T03:00:24;2.50;;;1.45;;
28627;SDS011;15815;46.760;19.604;2022-07-17T03:02:52;4.57;;;1.08;;
28627;SDS011;15815;46.760;19.604;2022-07-17T03:05:17;3.70;;;1.20;;
28627;SDS011;15815;46.760;19.604;2022-07-17T03:07:43;2.70;;;1.52;;
28627;SDS011;15815;46.760;19.604;2022-07-17T03:10:09;5.15;;;1.42;;
28627;SDS011;15815;46.760;19.604;2022-07-17T03:12:34;2.65;;;1.30;;
28627;SDS011;15815;46.760;19.604;2022-07-17T03:15:00;3.03;;;1.70;;
28627;SDS011;15815;46.760;19.604;2022-07-17T03:17:25;1.95;;;1.38;;
28627;SDS011;15815;46.760;19.604;2022-07-17T03:19:51;2.35;;;1.33;;
28627;SDS011;15815;46.760;19.604;2022-07-17T03:22:17;4.72;;;1.08;;
28627;SDS011;15815;46.760;19.604;2022-07-17T03:24:42;2.90;;;1.65;;
28627;SDS011;15815;46.760;19.604;2022-07-17T03:27:07;3.65;;;1.30;;
28627;SDS011;15815;46.760;19.604;2022-07-17T03:29:33;1.83;;;1.23;;
28627;SDS011;15815;46.760;19.604;2022-07-17T03:31:58;5.53;;;1.50;;
28627;SDS011;15815;46.760;19.604;2022-07-17T03:34:24;2.45;;;1.33;;
28627;SDS011;15815;46.760;19.604;2022-07-17T03:36:49;5.38;;;1.25;;
28627;SDS011;15815;46.760;19.604;2022-07-17T03:39:15;2.10;;;1.20;;
28627;SDS011;15815;46.760;19.604;2022-07-17T03:41:40;3.83;;;1.27;;
28627;SDS011;15815;46.760;19.604;2022-07-17T03:44:06;3.55;;;1.23;;
28627;SDS011;15815;46.760;19.604;2022-07-17T03:46:31;4.00;;;1.40;;
28627;SDS011;15815;46.760;19.604;2022-07-17T03:48:57;2.72;;;1.30;;
28627;SDS011;15815;46.760;19.604;2022-07-17T03:51:22;1.30;;;0.98;;
28627;SDS011;15815;46.760;19.604;2022-07-17T03:53:48;3.97;;;1.42;;
28627;SDS011;15815;46.760;19.604;2022-07-17T03:56:13;5.63;;;2.08;;
28627;SDS011;15815;46.760;19.604;2022-07-17T03:58:39;1.95;;;1.25;;
28627;SDS011;15815;46.760;19.604;2022-07-17T04:01:04;3.15;;;1.45;;
28627;SDS011;15815;46.760;19.604;2022-07-17T04:03:29;2.55;;;1.50;;
28627;SDS011;15815;46.760;19.604;2022-07-17T04:05:55;2.70;;;1.45;;
28627;SDS011;15815;46.760;19.604;2022-07-17T04:08:20;2.75;;;1.90;;
28627;SDS011;15815;46.760;19.604;2022-07-17T04:10:45;3.97;;;1.90;;
28627;SDS011;15815;46.760;19.604;2022-07-17T04:13:11;3.20;;;1.50;;
28627;SDS011;15815;46.760;19.604;2022-07-17T04:15:36;1.45;;;1.20;;
28627;SDS011;15815;46.760;19.604;2022-07-17T04:18:14;5.30;;;1.52;;
28627;SDS011;15815;46.760;19.604;2022-07-17T04:20:43;6.45;;;1.70;;
28627;SDS011;15815;46.760;19.604;2022-07-17T04:23:08;4.10;;;1.85;;
28627;SDS011;15815;46.760;19.604;2022-07-17T04:25:34;4.03;;;1.52;;
28627;SDS011;15815;46.760;19.604;2022-07-17T04:27:59;4.55;;;1.40;;
28627;SDS011;15815;46.760;19.604;2022-07-17T04:30:25;2.40;;;1.10;;
28627;SDS011;15815;46.760;19.604;2022-07-17T04:32:50;2.53;;;1.10;;
28627;SDS011;15815;46.760;19.604;2022-07-17T04:35:16;3.47;;;1.33;;
28627;SDS011;15815;46.760;19.604;2022-07-17T04:37:41;3.50;;;1.60;;
28627;SDS011;15815;46.760;19.604;2022-07-17T04:40:06;2.72;;;1.20;;
28627;SDS011;15815;46.760;19.604;2022-07-17T04:42:32;8.32;;;1.55;;
28627;SDS011;15815;46.760;19.604;2022-07-17T04:44:58;9.63;;;1.77;;
28627;SDS011;15815;46.760;19.604;2022-07-17T04:47:23;3.13;;;1.20;;
28627;SDS011;15815;46.760;19.604;2022-07-17T04:49:48;4.22;;;1.50;;
28627;SDS011;15815;46.760;19.604;2022-07-17T04:52:14;2.95;;;1.13;;
28627;SDS011;15815;46.760;19.604;2022-07-17T04:54:39;1.58;;;1.05;;
28627;SDS011;15815;46.760;19.604;2022-07-17T04:57:04;2.83;;;1.40;;
28627;SDS011;15815;46.760;19.604;2022-07-17T04:59:30;9.93;;;1.33;;
28627;SDS011;15815;46.760;19.604;2022-07-17T05:01:55;10.80;;;1.73;;
28627;SDS011;15815;46.760;19.604;2022-07-17T05:04:20;3.60;;;1.45;;
28627;SDS011;15815;46.760;19.604;2022-07-17T05:06:46;2.15;;;1.10;;
28627;SDS011;15815;46.760;19.604;2022-07-17T05:09:11;3.70;;;1.00;;
28627;SDS011;15815;46.760;19.604;2022-07-17T05:11:37;3.20;;;1.10;;
28627;SDS011;15815;46.760;19.604;2022-07-17T05:14:02;3.78;;;1.20;;
28627;SDS011;15815;46.760;19.604;2022-07-17T05:16:29;3.15;;;1.40;;
28627;SDS011;15815;46.760;19.604;2022-07-17T05:18:54;3.00;;;1.00;;
28627;SDS011;15815;46.760;19.604;2022-07-17T05:21:19;6.90;;;1.17;;
28627;SDS011;15815;46.760;19.604;2022-07-17T05:23:45;2.08;;;1.10;;
28627;SDS011;15815;46.760;19.604;2022-07-17T05:26:10;2.17;;;0.77;;
28627;SDS011;15815;46.760;19.604;2022-07-17T05:28:36;3.22;;;1.17;;
28627;SDS011;15815;46.760;19.604;2022-07-17T05:31:02;1.23;;;1.10;;
28627;SDS011;15815;46.760;19.604;2022-07-17T05:33:27;1.60;;;1.10;;
28627;SDS011;15815;46.760;19.604;2022-07-17T05:35:52;2.65;;;1.17;;
28627;SDS011;15815;46.760;19.604;2022-07-17T05:38:18;1.95;;;1.10;;
28627;SDS011;15815;46.760;19.604;2022-07-17T05:40:43;1.83;;;1.30;;
28627;SDS011;15815;46.760;19.604;2022-07-17T05:43:09;1.88;;;1.30;;
28627;SDS011;15815;46.760;19.604;2022-07-17T05:45:34;3.58;;;0.90;;
28627;SDS011;15815;46.760;19.604;2022-07-17T05:47:59;1.77;;;1.00;;
28627;SDS011;15815;46.760;19.604;2022-07-17T05:50:25;1.90;;;1.13;;
28627;SDS011;15815;46.760;19.604;2022-07-17T05:52:51;2.08;;;1.00;;
28627;SDS011;15815;46.760;19.604;2022-07-17T05:55:16;2.50;;;1.20;;
28627;SDS011;15815;46.760;19.604;2022-07-17T05:57:41;3.88;;;1.35;;
28627;SDS011;15815;46.760;19.604;2022-07-17T06:00:07;2.47;;;0.90;;
28627;SDS011;15815;46.760;19.604;2022-07-17T06:02:33;1.63;;;1.13;;
28627;SDS011;15815;46.760;19.604;2022-07-17T06:04:58;4.93;;;1.10;;
28627;SDS011;15815;46.760;19.604;2022-07-17T06:07:24;2.75;;;1.00;;
28627;SDS011;15815;46.760;19.604;2022-07-17T06:09:49;2.78;;;1.00;;
28627;SDS011;15815;46.760;19.604;2022-07-17T06:12:14;1.77;;;1.02;;
28627;SDS011;15815;46.760;19.604;2022-07-17T06:14:40;4.55;;;1.30;;
28627;SDS011;15815;46.760;19.604;2022-07-17T06:17:05;2.70;;;0.93;;
28627;SDS011;15815;46.760;19.604;2022-07-17T06:19:30;4.95;;;1.27;;
28627;SDS011;15815;46.760;19.604;2022-07-17T06:21:56;2.60;;;0.98;;
28627;SDS011;15815;46.760;19.604;2022-07-17T06:24:21;1.95;;;1.17;;
28627;SDS011;15815;46.760;19.604;2022-07-17T06:26:47;0.85;;;0.77;;
28627;SDS011;15815;46.760;19.604;2022-07-17T06:29:12;0.60;;;0.50;;
28627;SDS011;15815;46.760;19.604;2022-07-17T06:31:37;2.15;;;0.75;;
28627;SDS011;15815;46.760;19.604;2022-07-17T06:34:02;4.65;;;0.65;;
28627;SDS011;15815;46.760;19.604;2022-07-17T06:36:28;1.63;;;0.88;;
28627;SDS011;15815;46.760;19.604;2022-07-17T06:38:53;1.98;;;0.95;;
28627;SDS011;15815;46.760;19.604;2022-07-17T06:41:19;1.98;;;0.80;;
28627;SDS011;15815;46.760;19.604;2022-07-17T06:43:44;7.03;;;1.48;;
28627;SDS011;15815;46.760;19.604;2022-07-17T06:46:09;1.40;;;0.80;;
28627;SDS011;15815;46.760;19.604;2022-07-17T06:48:35;2.70;;;0.82;;
28627;SDS011;15815;46.760;19.604;2022-07-17T06:51:00;2.90;;;0.40;;
28627;SDS011;15815;46.760;19.604;2022-07-17T06:53:25;4.88;;;0.77;;
28627;SDS011;15815;46.760;19.604;2022-07-17T06:55:51;6.00;;;0.95;;
28627;SDS011;15815;46.760;19.604;2022-07-17T06:58:16;2.05;;;0.80;;
28627;SDS011;15815;46.760;19.604;2022-07-17T07:00:41;3.40;;;1.42;;
28627;SDS011;15815;46.760;19.604;2022-07-17T07:03:07;2.63;;;0.60;;
28627;SDS011;15815;46.760;19.604;2022-07-17T07:05:33;2.72;;;1.00;;
28627;SDS011;15815;46.760;19.604;2022-07-17T07:07:59;2.13;;;0.93;;
28627;SDS011;15815;46.760;19.604;2022-07-17T07:10:24;3.95;;;0.70;;
28627;SDS011;15815;46.760;19.604;2022-07-17T07:12:50;5.88;;;0.80;;
28627;SDS011;15815;46.760;19.604;2022-07-17T07:15:15;1.25;;;0.80;;
28627;SDS011;15815;46.760;19.604;2022-07-17T07:17:40;0.47;;;0.47;;
28627;SDS011;15815;46.760;19.604;2022-07-17T07:20:06;6.53;;;1.00;;
28627;SDS011;15815;46.760;19.604;2022-07-17T07:22:33;3.15;;;0.73;;
28627;SDS011;15815;46.760;19.604;2022-07-17T07:24:58;2.38;;;0.60;;
28627;SDS011;15815;46.760;19.604;2022-07-17T07:27:24;1.65;;;0.70;;
28627;SDS011;15815;46.760;19.604;2022-07-17T07:29:49;1.02;;;0.68;;
28627;SDS011;15815;46.760;19.604;2022-07-17T07:32:15;0.95;;;0.70;;
28627;SDS011;15815;46.760;19.604;2022-07-17T07:34:41;2.38;;;0.75;;
28627;SDS011;15815;46.760;19.604;2022-07-17T07:37:06;2.35;;;0.57;;
28627;SDS011;15815;46.760;19.604;2022-07-17T07:39:32;2.10;;;0.90;;
28627;SDS011;15815;46.760;19.604;2022-07-17T07:41:57;2.97;;;0.65;;
28627;SDS011;15815;46.760;19.604;2022-07-17T07:44:23;3.55;;;0.90;;
28627;SDS011;15815;46.760;19.604;2022-07-17T07:46:48;0.85;;;0.45;;
28627;SDS011;15815;46.760;19.604;2022-07-17T07:49:14;2.50;;;0.93;;
28627;SDS011;15815;46.760;19.604;2022-07-17T07:51:40;1.75;;;0.60;;
28627;SDS011;15815;46.760;19.604;2022-07-17T07:54:06;3.17;;;0.70;;
28627;SDS011;15815;46.760;19.604;2022-07-17T07:56:31;1.02;;;0.70;;
28627;SDS011;15815;46.760;19.604;2022-07-17T07:58:57;3.42;;;1.13;;
28627;SDS011;15815;46.760;19.604;2022-07-17T08:01:22;5.70;;;0.82;;
28627;SDS011;15815;46.760;19.604;2022-07-17T08:03:47;2.97;;;0.85;;
28627;SDS011;15815;46.760;19.604;2022-07-17T08:06:13;2.78;;;0.68;;
28627;SDS011;15815;46.760;19.604;2022-07-17T08:08:39;0.90;;;0.52;;
28627;SDS011;15815;46.760;19.604;2022-07-17T08:11:05;3.33;;;1.08;;
28627;SDS011;15815;46.760;19.604;2022-07-17T08:13:31;9.43;;;1.10;;
28627;SDS011;15815;46.760;19.604;2022-07-17T08:15:57;4.60;;;1.25;;
28627;SDS011;15815;46.760;19.604;2022-07-17T08:18:24;4.45;;;1.15;;
28627;SDS011;15815;46.760;19.604;2022-07-17T08:20:51;4.53;;;0.90;;
28627;SDS011;15815;46.760;19.604;2022-07-17T08:23:17;2.95;;;0.70;;
28627;SDS011;15815;46.760;19.604;2022-07-17T08:25:42;3.05;;;1.00;;
28627;SDS011;15815;46.760;19.604;2022-07-17T08:28:08;3.38;;;0.95;;
28627;SDS011;15815;46.760;19.604;2022-07-17T08:30:34;1.48;;;0.60;;
28627;SDS011;15815;46.760;19.604;2022-07-17T08:33:02;1.23;;;0.57;;
28627;SDS011;15815;46.760;19.604;2022-07-17T08:35:28;4.95;;;0.60;;
28627;SDS011;15815;46.760;19.604;2022-07-17T08:37:53;1.90;;;0.60;;
28627;SDS011;15815;46.760;19.604;2022-07-17T08:42:49;3.08;;;0.85;;
28627;SDS011;15815;46.760;19.604;2022-07-17T08:45:15;2.40;;;0.73;;
28627;SDS011;15815;46.760;19.604;2022-07-17T08:47:41;1.40;;;0.50;;
28627;SDS011;15815;46.760;19.604;2022-07-17T08:50:07;1.77;;;0.47;;
28627;SDS011;15815;46.760;19.604;2022-07-17T08:52:33;2.47;;;0.52;;
28627;SDS011;15815;46.760;19.604;2022-07-17T08:55:01;3.38;;;0.63;;
28627;SDS011;15815;46.760;19.604;2022-07-17T08:57:27;1.13;;;0.60;;
28627;SDS011;15815;46.760;19.604;2022-07-17T08:59:52;3.72;;;0.95;;
28627;SDS011;15815;46.760;19.604;2022-07-17T09:02:17;1.85;;;0.85;;
28627;SDS011;15815;46.760;19.604;2022-07-17T09:04:51;4.55;;;0.77;;
28627;SDS011;15815;46.760;19.604;2022-07-17T09:07:18;2.30;;;0.68;;
28627;SDS011;15815;46.760;19.604;2022-07-17T09:09:49;4.35;;;0.90;;
28627;SDS011;15815;46.760;19.604;2022-07-17T09:12:16;3.45;;;0.80;;
28627;SDS011;15815;46.760;19.604;2022-07-17T09:14:42;2.13;;;0.70;;
28627;SDS011;15815;46.760;19.604;2022-07-17T09:17:08;1.38;;;0.50;;
28627;SDS011;15815;46.760;19.604;2022-07-17T09:19:36;5.65;;;0.75;;
28627;SDS011;15815;46.760;19.604;2022-07-17T09:22:13;2.95;;;1.00;;
28627;SDS011;15815;46.760;19.604;2022-07-17T09:24:44;3.20;;;0.80;;
28627;SDS011;15815;46.760;19.604;2022-07-17T09:27:10;3.08;;;0.55;;
28627;SDS011;15815;46.760;19.604;2022-07-17T09:29:59;4.13;;;0.77;;
28627;SDS011;15815;46.760;19.604;2022-07-17T09:32:36;3.28;;;0.95;;
28627;SDS011;15815;46.760;19.604;2022-07-17T09:35:04;4.43;;;0.50;;
28627;SDS011;15815;46.760;19.604;2022-07-17T09:37:32;1.23;;;0.60;;
28627;SDS011;15815;46.760;19.604;2022-07-17T09:39:59;1.95;;;0.90;;
28627;SDS011;15815;46.760;19.604;2022-07-17T09:42:30;9.48;;;1.00;;
28627;SDS011;15815;46.760;19.604;2022-07-17T09:47:30;4.10;;;0.90;;
28627;SDS011;15815;46.760;19.604;2022-07-17T09:49:58;1.83;;;0.90;;
28627;SDS011;15815;46.760;19.604;2022-07-17T09:52:29;2.70;;;0.90;;
28627;SDS011;15815;46.760;19.604;2022-07-17T09:54:56;2.58;;;0.60;;
28627;SDS011;15815;46.760;19.604;2022-07-17T09:57:32;5.53;;;1.08;;
28627;SDS011;15815;46.760;19.604;2022-07-17T10:00:00;8.10;;;0.85;;
28627;SDS011;15815;46.760;19.604;2022-07-17T10:02:28;3.88;;;0.90;;
28627;SDS011;15815;46.760;19.604;2022-07-17T10:04:54;0.95;;;0.60;;
28627;SDS011;15815;46.760;19.604;2022-07-17T10:07:20;1.00;;;0.57;;
28627;SDS011;15815;46.760;19.604;2022-07-17T10:09:45;2.33;;;0.80;;
28627;SDS011;15815;46.760;19.604;2022-07-17T10:12:11;1.20;;;0.60;;
28627;SDS011;15815;46.760;19.604;2022-07-17T10:14:38;1.90;;;0.70;;
28627;SDS011;15815;46.760;19.604;2022-07-17T10:17:19;1.08;;;0.70;;
28627;SDS011;15815;46.760;19.604;2022-07-17T10:19:55;1.73;;;0.65;;
28627;SDS011;15815;46.760;19.604;2022-07-17T10:22:21;4.50;;;1.05;;
28627;SDS011;15815;46.760;19.604;2022-07-17T10:24:52;1.50;;;0.50;;
28627;SDS011;15815;46.760;19.604;2022-07-17T10:27:20;2.05;;;0.70;;
28627;SDS011;15815;46.760;19.604;2022-07-17T10:30:07;7.80;;;1.00;;
28627;SDS011;15815;46.760;19.604;2022-07-17T10:32:34;5.90;;;0.95;;
28627;SDS011;15815;46.760;19.604;2022-07-17T10:35:07;1.35;;;0.80;;
28627;SDS011;15815;46.760;19.604;2022-07-17T10:40:04;1.13;;;0.37;;
28627;SDS011;15815;46.760;19.604;2022-07-17T10:50:31;1.00;;;0.63;;
28627;SDS011;15815;46.760;19.604;2022-07-17T10:55:31;2.85;;;0.57;;
28627;SDS011;15815;46.760;19.604;2022-07-17T10:57:58;1.92;;;0.77;;
28627;SDS011;15815;46.760;19.604;2022-07-17T11:00:24;1.50;;;0.70;;
28627;SDS011;15815;46.760;19.604;2022-07-17T11:02:49;2.50;;;0.73;;
28627;SDS011;15815;46.760;19.604;2022-07-17T11:05:15;2.30;;;0.55;;
28627;SDS011;15815;46.760;19.604;2022-07-17T11:07:48;3.50;;;0.88;;
28627;SDS011;15815;46.760;19.604;2022-07-17T11:10:25;1.60;;;0.70;;
28627;SDS011;15815;46.760;19.604;2022-07-17T11:12:52;2.10;;;0.65;;
28627;SDS011;15815;46.760;19.604;2022-07-17T11:15:37;2.08;;;0.60;;
28627;SDS011;15815;46.760;19.604;2022-07-17T11:18:09;1.45;;;0.60;;
28627;SDS011;15815;46.760;19.604;2022-07-17T11:20:46;1.10;;;0.65;;
28627;SDS011;15815;46.760;19.604;2022-07-17T11:23:16;3.50;;;0.55;;
28627;SDS011;15815;46.760;19.604;2022-07-17T11:26:01;2.13;;;0.60;;
28627;SDS011;15815;46.760;19.604;2022-07-17T11:28:42;2.40;;;0.75;;
28627;SDS011;15815;46.760;19.604;2022-07-17T11:33:45;1.77;;;0.70;;
28627;SDS011;15815;46.760;19.604;2022-07-17T11:36:11;1.90;;;0.70;;
28627;SDS011;15815;46.760;19.604;2022-07-17T11:38:37;2.38;;;0.60;;
28627;SDS011;15815;46.760;19.604;2022-07-17T11:41:02;2.97;;;0.70;;
28627;SDS011;15815;46.760;19.604;2022-07-17T11:43:28;21.08;;;1.60;;
28627;SDS011;15815;46.760;19.604;2022-07-17T11:45:53;2.65;;;0.70;;
28627;SDS011;15815;46.760;19.604;2022-07-17T11:48:19;3.92;;;0.75;;
28627;SDS011;15815;46.760;19.604;2022-07-17T11:50:54;4.05;;;0.70;;
28627;SDS011;15815;46.760;19.604;2022-07-17T11:53:30;1.65;;;1.02;;
28627;SDS011;15815;46.760;19.604;2022-07-17T11:55:56;1.83;;;0.70;;
28627;SDS011;15815;46.760;19.604;2022-07-17T11:58:21;1.15;;;0.60;;
28627;SDS011;15815;46.760;19.604;2022-07-17T12:00:47;1.15;;;0.70;;
28627;SDS011;15815;46.760;19.604;2022-07-17T12:03:12;3.63;;;0.80;;
28627;SDS011;15815;46.760;19.604;2022-07-17T12:05:38;2.58;;;0.68;;
28627;SDS011;15815;46.760;19.604;2022-07-17T12:08:07;1.05;;;0.60;;
28627;SDS011;15815;46.760;19.604;2022-07-17T12:10:33;2.83;;;0.68;;
28627;SDS011;15815;46.760;19.604;2022-07-17T12:18:24;1.75;;;0.70;;
28627;SDS011;15815;46.760;19.604;2022-07-17T12:20:53;2.55;;;1.00;;
28627;SDS011;15815;46.760;19.604;2022-07-17T12:28:29;1.42;;;0.70;;
28627;SDS011;15815;46.760;19.604;2022-07-17T12:30:55;4.18;;;0.65;;
28627;SDS011;15815;46.760;19.604;2022-07-17T12:33:20;1.63;;;0.75;;
28627;SDS011;15815;46.760;19.604;2022-07-17T12:35:45;0.85;;;0.50;;
28627;SDS011;15815;46.760;19.604;2022-07-17T12:38:11;6.27;;;0.70;;
28627;SDS011;15815;46.760;19.604;2022-07-17T12:40:36;2.70;;;0.70;;
28627;SDS011;15815;46.760;19.604;2022-07-17T12:43:02;2.45;;;0.90;;
28627;SDS011;15815;46.760;19.604;2022-07-17T12:45:27;2.70;;;0.70;;
28627;SDS011;15815;46.760;19.604;2022-07-17T12:47:52;6.65;;;1.00;;
28627;SDS011;15815;46.760;19.604;2022-07-17T12:50:18;0.80;;;0.50;;
28627;SDS011;15815;46.760;19.604;2022-07-17T12:52:44;2.15;;;0.43;;
28627;SDS011;15815;46.760;19.604;2022-07-17T12:55:09;1.83;;;0.73;;
28627;SDS011;15815;46.760;19.604;2022-07-17T12:57:36;1.92;;;0.88;;
28627;SDS011;15815;46.760;19.604;2022-07-17T13:00:02;1.83;;;0.75;;
28627;SDS011;15815;46.760;19.604;2022-07-17T13:02:29;2.17;;;0.75;;
28627;SDS011;15815;46.760;19.604;2022-07-17T13:04:54;1.80;;;0.70;;
28627;SDS011;15815;46.760;19.604;2022-07-17T13:07:20;1.77;;;0.80;;
28627;SDS011;15815;46.760;19.604;2022-07-17T13:09:45;2.72;;;0.70;;
28627;SDS011;15815;46.760;19.604;2022-07-17T13:12:10;1.95;;;0.60;;
28627;SDS011;15815;46.760;19.604;2022-07-17T13:14:36;1.65;;;0.80;;
28627;SDS011;15815;46.760;19.604;2022-07-17T13:17:01;1.67;;;0.75;;
28627;SDS011;15815;46.760;19.604;2022-07-17T13:19:27;1.10;;;0.65;;
28627;SDS011;15815;46.760;19.604;2022-07-17T13:21:52;4.50;;;0.60;;
28627;SDS011;15815;46.760;19.604;2022-07-17T13:24:18;2.45;;;0.80;;
28627;SDS011;15815;46.760;19.604;2022-07-17T13:26:43;3.58;;;0.90;;
28627;SDS011;15815;46.760;19.604;2022-07-17T13:29:09;1.87;;;0.77;;
28627;SDS011;15815;46.760;19.604;2022-07-17T13:31:34;4.35;;;1.00;;
28627;SDS011;15815;46.760;19.604;2022-07-17T13:33:59;1.63;;;0.90;;
28627;SDS011;15815;46.760;19.604;2022-07-17T13:36:25;1.93;;;0.77;;
28627;SDS011;15815;46.760;19.604;2022-07-17T13:38:50;1.37;;;0.67;;
28627;SDS011;15815;46.760;19.604;2022-07-17T13:41:15;1.20;;;0.47;;
28627;SDS011;15815;46.760;19.604;2022-07-17T13:43:41;2.10;;;0.47;;
28627;SDS011;15815;46.760;19.604;2022-07-17T13:46:06;0.95;;;0.63;;
28627;SDS011;15815;46.760;19.604;2022-07-17T13:48:31;2.55;;;0.70;;
28627;SDS011;15815;46.760;19.604;2022-07-17T13:50:57;2.92;;;0.80;;
28627;SDS011;15815;46.760;19.604;2022-07-17T13:53:22;2.22;;;0.70;;
28627;SDS011;15815;46.760;19.604;2022-07-17T13:55:47;2.05;;;0.70;;
28627;SDS011;15815;46.760;19.604;2022-07-17T13:58:13;0.93;;;0.53;;
28627;SDS011;15815;46.760;19.604;2022-07-17T14:00:39;0.85;;;0.75;;
28627;SDS011;15815;46.760;19.604;2022-07-17T14:03:05;1.73;;;0.57;;
28627;SDS011;15815;46.760;19.604;2022-07-17T14:05:30;2.90;;;0.65;;
28627;SDS011;15815;46.760;19.604;2022-07-17T14:07:56;3.92;;;0.93;;
28627;SDS011;15815;46.760;19.604;2022-07-17T14:10:21;0.73;;;0.60;;
28627;SDS011;15815;46.760;19.604;2022-07-17T14:12:47;2.47;;;0.88;;
28627;SDS011;15815;46.760;19.604;2022-07-17T14:15:12;1.67;;;0.60;;
28627;SDS011;15815;46.760;19.604;2022-07-17T14:17:38;5.63;;;0.60;;
28627;SDS011;15815;46.760;19.604;2022-07-17T14:20:04;0.95;;;0.70;;
28627;SDS011;15815;46.760;19.604;2022-07-17T14:22:30;1.45;;;0.93;;
28627;SDS011;15815;46.760;19.604;2022-07-17T14:24:56;1.17;;;0.68;;
28627;SDS011;15815;46.760;19.604;2022-07-17T14:27:21;2.47;;;0.82;;
28627;SDS011;15815;46.760;19.604;2022-07-17T14:29:47;2.55;;;0.90;;
28627;SDS011;15815;46.760;19.604;2022-07-17T14:32:13;1.42;;;0.60;;
28627;SDS011;15815;46.760;19.604;2022-07-17T14:34:38;2.15;;;0.80;;
28627;SDS011;15815;46.760;19.604;2022-07-17T14:37:04;2.83;;;1.00;;
28627;SDS011;15815;46.760;19.604;2022-07-17T14:39:32;3.38;;;0.75;;
28627;SDS011;15815;46.760;19.604;2022-07-17T14:41:58;4.30;;;1.50;;
28627;SDS011;15815;46.760;19.604;2022-07-17T14:44:23;1.50;;;1.20;;
28627;SDS011;15815;46.760;19.604;2022-07-17T14:46:49;2.35;;;0.90;;
28627;SDS011;15815;46.760;19.604;2022-07-17T14:49:14;5.25;;;0.93;;
28627;SDS011;15815;46.760;19.604;2022-07-17T14:51:40;5.43;;;1.20;;
28627;SDS011;15815;46.760;19.604;2022-07-17T14:54:05;3.78;;;1.20;;
28627;SDS011;15815;46.760;19.604;2022-07-17T14:56:30;2.13;;;1.25;;
28627;SDS011;15815;46.760;19.604;2022-07-17T14:58:56;2.65;;;1.20;;
28627;SDS011;15815;46.760;19.604;2022-07-17T15:01:21;1.73;;;1.15;;